sensor_id;sensor_type;location;lat;lon;timestamp;temperature;humidity
62583;DHT22;48641;51.676;5.808;2024-03-02T00:02:13;15.20;51.70
62583;DHT22;48641;51.676;5.808;2024-03-02T00:04:44;15.20;51.70
62583;DHT22;48641;51.676;5.808;2024-03-02T00:07:09;15.10;51.50
62583;DHT22;48641;51.676;5.808;2024-03-02T00:09:35;15.10;51.90
62583;DHT22;48641;51.676;5.808;2024-03-02T00:12:02;15.10;51.90
62583;DHT22;48641;51.676;5.808;2024-03-02T00:14:31;15.10;51.90
62583;DHT22;48641;51.676;5.808;2024-03-02T00:16:57;15.10;51.90
62583;DHT22;48641;51.676;5.808;2024-03-02T00:19:24;15.10;51.90
62583;DHT22;48641;51.676;5.808;2024-03-02T00:21:50;15.10;52.50
62583;DHT22;48641;51.676;5.808;2024-03-02T00:24:31;15.10;51.80
62583;DHT22;48641;51.676;5.808;2024-03-02T00:26:57;15.10;51.80
62583;DHT22;48641;51.676;5.808;2024-03-02T00:29:23;15.10;52.70
62583;DHT22;48641;51.676;5.808;2024-03-02T00:31:50;15.10;51.70
62583;DHT22;48641;51.676;5.808;2024-03-02T00:34:17;15.10;51.70
62583;DHT22;48641;51.676;5.808;2024-03-02T00:36:42;15.10;51.70
62583;DHT22;48641;51.676;5.808;2024-03-02T00:39:08;15.10;51.60
62583;DHT22;48641;51.676;5.808;2024-03-02T00:41:37;15.10;51.70
62583;DHT22;48641;51.676;5.808;2024-03-02T00:44:15;15.10;51.70
62583;DHT22;48641;51.676;5.808;2024-03-02T00:46:42;15.10;51.90
62583;DHT22;48641;51.676;5.808;2024-03-02T00:51:37;15.00;51.90
62583;DHT22;48641;51.676;5.808;2024-03-02T00:54:07;15.00;52.00
62583;DHT22;48641;51.676;5.808;2024-03-02T00:56:33;15.10;52.10
62583;DHT22;48641;51.676;5.808;2024-03-02T00:59:00;15.10;52.10
62583;DHT22;48641;51.676;5.808;2024-03-02T01:01:26;15.10;52.20
62583;DHT22;48641;51.676;5.808;2024-03-02T01:03:52;15.10;52.20
62583;DHT22;48641;51.676;5.808;2024-03-02T01:06:18;15.10;52.20
62583;DHT22;48641;51.676;5.808;2024-03-02T01:08:44;15.10;52.20
62583;DHT22;48641;51.676;5.808;2024-03-02T01:11:10;15.10;52.20
62583;DHT22;48641;51.676;5.808;2024-03-02T01:13:36;15.10;53.20
62583;DHT22;48641;51.676;5.808;2024-03-02T01:16:01;15.10;52.20
62583;DHT22;48641;51.676;5.808;2024-03-02T01:18:28;15.10;52.20
62583;DHT22;48641;51.676;5.808;2024-03-02T01:20:54;15.10;52.30
62583;DHT22;48641;51.676;5.808;2024-03-02T01:23:23;15.10;52.30
62583;DHT22;48641;51.676;5.808;2024-03-02T01:25:49;15.10;52.30
62583;DHT22;48641;51.676;5.808;2024-03-02T01:28:15;15.10;52.30
62583;DHT22;48641;51.676;5.808;2024-03-02T01:30:41;15.10;52.30
62583;DHT22;48641;51.676;5.808;2024-03-02T01:33:06;15.10;52.30
62583;DHT22;48641;51.676;5.808;2024-03-02T01:35:32;15.10;52.30
62583;DHT22;48641;51.676;5.808;2024-03-02T01:37:58;15.10;52.30
62583;DHT22;48641;51.676;5.808;2024-03-02T01:40:24;15.10;52.30
62583;DHT22;48641;51.676;5.808;2024-03-02T01:42:54;15.10;52.30
62583;DHT22;48641;51.676;5.808;2024-03-02T01:45:20;15.10;52.30
62583;DHT22;48641;51.676;5.808;2024-03-02T01:47:46;15.10;52.30
62583;DHT22;48641;51.676;5.808;2024-03-02T01:50:12;15.10;52.30
62583;DHT22;48641;51.676;5.808;2024-03-02T01:52:38;15.10;52.30
62583;DHT22;48641;51.676;5.808;2024-03-02T01:55:04;15.10;52.30
62583;DHT22;48641;51.676;5.808;2024-03-02T01:57:31;15.10;52.40
62583;DHT22;48641;51.676;5.808;2024-03-02T01:59:57;15.00;52.30
62583;DHT22;48641;51.676;5.808;2024-03-02T02:02:23;15.10;52.30
62583;DHT22;48641;51.676;5.808;2024-03-02T02:04:48;15.10;52.30
62583;DHT22;48641;51.676;5.808;2024-03-02T02:07:14;15.10;52.30
62583;DHT22;48641;51.676;5.808;2024-03-02T02:09:43;15.10;52.30
62583;DHT22;48641;51.676;5.808;2024-03-02T02:12:10;15.00;52.20
62583;DHT22;48641;51.676;5.808;2024-03-02T02:14:36;15.00;52.20
62583;DHT22;48641;51.676;5.808;2024-03-02T02:17:02;15.00;52.30
62583;DHT22;48641;51.676;5.808;2024-03-02T02:19:27;15.00;52.30
62583;DHT22;48641;51.676;5.808;2024-03-02T02:21:54;15.00;52.30
62583;DHT22;48641;51.676;5.808;2024-03-02T02:24:19;15.00;52.30
62583;DHT22;48641;51.676;5.808;2024-03-02T02:26:45;15.00;52.30
62583;DHT22;48641;51.676;5.808;2024-03-02T02:29:10;15.10;52.40
62583;DHT22;48641;51.676;5.808;2024-03-02T02:31:39;15.00;52.30
62583;DHT22;48641;51.676;5.808;2024-03-02T02:34:05;15.00;52.30
62583;DHT22;48641;51.676;5.808;2024-03-02T02:36:32;15.00;52.30
62583;DHT22;48641;51.676;5.808;2024-03-02T02:39:03;15.00;52.40
62583;DHT22;48641;51.676;5.808;2024-03-02T02:41:29;15.00;52.40
62583;DHT22;48641;51.676;5.808;2024-03-02T02:43:55;15.00;52.30
62583;DHT22;48641;51.676;5.808;2024-03-02T02:46:21;15.00;52.30
62583;DHT22;48641;51.676;5.808;2024-03-02T02:48:46;15.00;52.30
62583;DHT22;48641;51.676;5.808;2024-03-02T02:51:12;15.00;52.30
62583;DHT22;48641;51.676;5.808;2024-03-02T02:53:38;15.00;52.20
62583;DHT22;48641;51.676;5.808;2024-03-02T02:56:06;15.00;52.20
62583;DHT22;48641;51.676;5.808;2024-03-02T02:58:32;15.00;52.30
62583;DHT22;48641;51.676;5.808;2024-03-02T03:00:57;15.00;52.30
62583;DHT22;48641;51.676;5.808;2024-03-02T03:03:23;15.00;52.30
62583;DHT22;48641;51.676;5.808;2024-03-02T03:05:48;15.00;53.40
62583;DHT22;48641;51.676;5.808;2024-03-02T03:08:14;15.00;52.40
62583;DHT22;48641;51.676;5.808;2024-03-02T03:10:41;15.00;52.40
62583;DHT22;48641;51.676;5.808;2024-03-02T03:13:07;15.00;52.40
62583;DHT22;48641;51.676;5.808;2024-03-02T03:15:36;15.00;52.40
62583;DHT22;48641;51.676;5.808;2024-03-02T03:18:02;14.90;53.40
62583;DHT22;48641;51.676;5.808;2024-03-02T03:20:29;15.00;52.50
62583;DHT22;48641;51.676;5.808;2024-03-02T03:22:55;15.00;52.50
62583;DHT22;48641;51.676;5.808;2024-03-02T03:25:21;15.00;52.60
62583;DHT22;48641;51.676;5.808;2024-03-02T03:27:46;15.00;52.60
62583;DHT22;48641;51.676;5.808;2024-03-02T03:30:12;15.00;52.60
62583;DHT22;48641;51.676;5.808;2024-03-02T03:32:38;15.00;52.60
62583;DHT22;48641;51.676;5.808;2024-03-02T03:35:04;15.00;52.60
62583;DHT22;48641;51.676;5.808;2024-03-02T03:37:30;14.90;52.50
62583;DHT22;48641;51.676;5.808;2024-03-02T03:39:59;15.00;52.60
62583;DHT22;48641;51.676;5.808;2024-03-02T03:42:24;15.00;52.60
62583;DHT22;48641;51.676;5.808;2024-03-02T03:44:50;15.00;52.50
62583;DHT22;48641;51.676;5.808;2024-03-02T03:47:16;15.00;52.60
62583;DHT22;48641;51.676;5.808;2024-03-02T03:49:41;14.90;52.60
62583;DHT22;48641;51.676;5.808;2024-03-02T03:52:07;14.90;52.60
62583;DHT22;48641;51.676;5.808;2024-03-02T03:54:32;14.90;52.60
62583;DHT22;48641;51.676;5.808;2024-03-02T03:56:58;14.90;52.60
62583;DHT22;48641;51.676;5.808;2024-03-02T03:59:24;15.00;52.70
62583;DHT22;48641;51.676;5.808;2024-03-02T04:01:49;14.90;52.90
62583;DHT22;48641;51.676;5.808;2024-03-02T04:04:15;14.90;52.90
62583;DHT22;48641;51.676;5.808;2024-03-02T04:06:40;14.90;52.90
62583;DHT22;48641;51.676;5.808;2024-03-02T04:09:06;14.90;52.80
62583;DHT22;48641;51.676;5.808;2024-03-02T04:11:32;14.90;52.90
62583;DHT22;48641;51.676;5.808;2024-03-02T04:13:58;15.00;52.90
62583;DHT22;48641;51.676;5.808;2024-03-02T04:16:23;14.90;52.70
62583;DHT22;48641;51.676;5.808;2024-03-02T04:18:49;14.90;52.80
62583;DHT22;48641;51.676;5.808;2024-03-02T04:21:15;14.90;52.70
62583;DHT22;48641;51.676;5.808;2024-03-02T04:23:40;14.90;52.80
62583;DHT22;48641;51.676;5.808;2024-03-02T04:26:06;14.90;52.70
62583;DHT22;48641;51.676;5.808;2024-03-02T04:28:31;14.90;52.60
62583;DHT22;48641;51.676;5.808;2024-03-02T04:30:58;14.90;52.60
62583;DHT22;48641;51.676;5.808;2024-03-02T04:33:23;14.90;52.60
62583;DHT22;48641;51.676;5.808;2024-03-02T04:35:49;14.90;52.50
62583;DHT22;48641;51.676;5.808;2024-03-02T04:38:14;14.90;52.60
62583;DHT22;48641;51.676;5.808;2024-03-02T04:40:40;14.90;52.50
62583;DHT22;48641;51.676;5.808;2024-03-02T04:43:06;14.90;52.60
62583;DHT22;48641;51.676;5.808;2024-03-02T04:45:33;14.90;53.60
62583;DHT22;48641;51.676;5.808;2024-03-02T04:47:59;14.80;52.60
62583;DHT22;48641;51.676;5.808;2024-03-02T04:50:24;14.90;53.70
62583;DHT22;48641;51.676;5.808;2024-03-02T04:52:50;14.90;52.70
62583;DHT22;48641;51.676;5.808;2024-03-02T04:55:16;14.90;52.80
62583;DHT22;48641;51.676;5.808;2024-03-02T04:57:41;14.80;52.70
62583;DHT22;48641;51.676;5.808;2024-03-02T05:00:07;14.90;52.80
62583;DHT22;48641;51.676;5.808;2024-03-02T05:02:34;14.80;52.70
62583;DHT22;48641;51.676;5.808;2024-03-02T05:05:00;14.80;52.70
62583;DHT22;48641;51.676;5.808;2024-03-02T05:07:26;14.80;52.90
62583;DHT22;48641;51.676;5.808;2024-03-02T05:09:51;14.80;52.90
62583;DHT22;48641;51.676;5.808;2024-03-02T05:12:17;14.80;53.00
62583;DHT22;48641;51.676;5.808;2024-03-02T05:15:14;14.80;53.00
62583;DHT22;48641;51.676;5.808;2024-03-02T05:17:41;14.80;53.10
62583;DHT22;48641;51.676;5.808;2024-03-02T05:20:10;14.80;53.10
62583;DHT22;48641;51.676;5.808;2024-03-02T05:22:36;14.80;53.00
62583;DHT22;48641;51.676;5.808;2024-03-02T05:25:03;14.70;53.30
62583;DHT22;48641;51.676;5.808;2024-03-02T05:27:29;14.70;53.30
62583;DHT22;48641;51.676;5.808;2024-03-02T05:29:54;14.70;53.20
62583;DHT22;48641;51.676;5.808;2024-03-02T05:32:20;14.80;53.30
62583;DHT22;48641;51.676;5.808;2024-03-02T05:34:46;14.70;53.10
62583;DHT22;48641;51.676;5.808;2024-03-02T05:37:11;14.70;53.20
62583;DHT22;48641;51.676;5.808;2024-03-02T05:39:37;14.70;53.20
62583;DHT22;48641;51.676;5.808;2024-03-02T05:42:03;14.70;53.20
62583;DHT22;48641;51.676;5.808;2024-03-02T05:44:29;14.70;53.20
62583;DHT22;48641;51.676;5.808;2024-03-02T05:46:54;14.70;53.20
62583;DHT22;48641;51.676;5.808;2024-03-02T05:49:20;14.80;53.40
62583;DHT22;48641;51.676;5.808;2024-03-02T05:51:46;14.80;53.30
62583;DHT22;48641;51.676;5.808;2024-03-02T05:54:11;14.70;53.40
62583;DHT22;48641;51.676;5.808;2024-03-02T05:56:37;14.70;53.40
62583;DHT22;48641;51.676;5.808;2024-03-02T05:59:03;14.80;53.40
62583;DHT22;48641;51.676;5.808;2024-03-02T06:01:47;14.80;53.50
62583;DHT22;48641;51.676;5.808;2024-03-02T06:04:13;14.80;53.60
62583;DHT22;48641;51.676;5.808;2024-03-02T06:06:40;14.70;53.60
62583;DHT22;48641;51.676;5.808;2024-03-02T06:09:06;14.80;53.80
62583;DHT22;48641;51.676;5.808;2024-03-02T06:13:59;14.80;54.00
62583;DHT22;48641;51.676;5.808;2024-03-02T06:16:24;14.80;53.90
62583;DHT22;48641;51.676;5.808;2024-03-02T06:18:50;14.70;53.90
62583;DHT22;48641;51.676;5.808;2024-03-02T06:21:16;14.70;53.90
62583;DHT22;48641;51.676;5.808;2024-03-02T06:23:43;14.80;54.10
62583;DHT22;48641;51.676;5.808;2024-03-02T06:26:09;14.70;54.10
62583;DHT22;48641;51.676;5.808;2024-03-02T06:28:34;14.80;54.20
62583;DHT22;48641;51.676;5.808;2024-03-02T06:31:01;14.80;54.20
62583;DHT22;48641;51.676;5.808;2024-03-02T06:33:27;14.70;54.10
62583;DHT22;48641;51.676;5.808;2024-03-02T06:35:54;14.70;54.10
62583;DHT22;48641;51.676;5.808;2024-03-02T06:38:19;14.70;54.20
62583;DHT22;48641;51.676;5.808;2024-03-02T06:40:45;14.70;54.40
62583;DHT22;48641;51.676;5.808;2024-03-02T06:43:10;14.70;54.10
62583;DHT22;48641;51.676;5.808;2024-03-02T06:45:36;14.80;54.10
62583;DHT22;48641;51.676;5.808;2024-03-02T06:48:02;14.70;54.30
62583;DHT22;48641;51.676;5.808;2024-03-02T06:50:27;14.70;54.50
62583;DHT22;48641;51.676;5.808;2024-03-02T06:52:53;14.70;54.70
62583;DHT22;48641;51.676;5.808;2024-03-02T06:55:21;14.80;54.90
62583;DHT22;48641;51.676;5.808;2024-03-02T06:57:47;14.80;54.90
62583;DHT22;48641;51.676;5.808;2024-03-02T07:00:13;14.70;54.80
62583;DHT22;48641;51.676;5.808;2024-03-02T07:02:39;14.80;55.40
62583;DHT22;48641;51.676;5.808;2024-03-02T07:05:07;14.80;55.10
62583;DHT22;48641;51.676;5.808;2024-03-02T07:07:34;14.80;55.00
62583;DHT22;48641;51.676;5.808;2024-03-02T07:10:00;14.80;55.10
62583;DHT22;48641;51.676;5.808;2024-03-02T07:12:26;14.90;55.10
62583;DHT22;48641;51.676;5.808;2024-03-02T07:14:52;15.00;55.10
62583;DHT22;48641;51.676;5.808;2024-03-02T07:17:32;15.00;55.00
62583;DHT22;48641;51.676;5.808;2024-03-02T07:19:58;15.10;55.00
62583;DHT22;48641;51.676;5.808;2024-03-02T07:22:24;15.20;54.90
62583;DHT22;48641;51.676;5.808;2024-03-02T07:24:50;15.30;54.80
62583;DHT22;48641;51.676;5.808;2024-03-02T07:27:17;15.40;54.60
62583;DHT22;48641;51.676;5.808;2024-03-02T07:29:43;15.50;54.50
62583;DHT22;48641;51.676;5.808;2024-03-02T07:32:09;15.50;54.20
62583;DHT22;48641;51.676;5.808;2024-03-02T07:34:36;15.50;54.00
62583;DHT22;48641;51.676;5.808;2024-03-02T07:37:02;15.60;53.90
62583;DHT22;48641;51.676;5.808;2024-03-02T07:39:28;15.60;53.70
62583;DHT22;48641;51.676;5.808;2024-03-02T07:41:54;15.70;53.60
62583;DHT22;48641;51.676;5.808;2024-03-02T07:44:20;15.70;53.50
62583;DHT22;48641;51.676;5.808;2024-03-02T07:46:47;15.80;53.40
62583;DHT22;48641;51.676;5.808;2024-03-02T07:49:13;15.80;53.20
62583;DHT22;48641;51.676;5.808;2024-03-02T07:51:41;15.80;53.10
62583;DHT22;48641;51.676;5.808;2024-03-02T07:54:07;15.80;53.00
62583;DHT22;48641;51.676;5.808;2024-03-02T07:56:33;15.80;53.00
62583;DHT22;48641;51.676;5.808;2024-03-02T07:58:58;15.80;52.80
62583;DHT22;48641;51.676;5.808;2024-03-02T08:01:33;15.80;52.70
62583;DHT22;48641;51.676;5.808;2024-03-02T08:04:00;15.70;52.70
62583;DHT22;48641;51.676;5.808;2024-03-02T08:06:26;15.70;52.60
62583;DHT22;48641;51.676;5.808;2024-03-02T08:08:59;15.70;52.70
62583;DHT22;48641;51.676;5.808;2024-03-02T08:11:25;15.70;52.70
62583;DHT22;48641;51.676;5.808;2024-03-02T08:13:52;15.70;52.70
62583;DHT22;48641;51.676;5.808;2024-03-02T08:16:20;15.70;52.50
62583;DHT22;48641;51.676;5.808;2024-03-02T08:18:47;15.70;52.50
62583;DHT22;48641;51.676;5.808;2024-03-02T08:21:13;15.60;52.60
62583;DHT22;48641;51.676;5.808;2024-03-02T08:23:39;15.60;52.60
62583;DHT22;48641;51.676;5.808;2024-03-02T08:26:06;15.60;52.80
62583;DHT22;48641;51.676;5.808;2024-03-02T08:28:32;15.60;52.90
62583;DHT22;48641;51.676;5.808;2024-03-02T08:30:58;15.60;52.90
62583;DHT22;48641;51.676;5.808;2024-03-02T08:33:24;15.60;53.00
62583;DHT22;48641;51.676;5.808;2024-03-02T08:35:50;15.60;53.00
62583;DHT22;48641;51.676;5.808;2024-03-02T08:38:15;15.60;53.00
62583;DHT22;48641;51.676;5.808;2024-03-02T08:40:41;15.50;53.00
62583;DHT22;48641;51.676;5.808;2024-03-02T08:43:07;15.60;53.00
62583;DHT22;48641;51.676;5.808;2024-03-02T08:45:32;15.60;53.00
62583;DHT22;48641;51.676;5.808;2024-03-02T08:47:59;15.50;53.00
62583;DHT22;48641;51.676;5.808;2024-03-02T08:50:25;15.60;52.90
62583;DHT22;48641;51.676;5.808;2024-03-02T08:52:50;15.50;52.90
62583;DHT22;48641;51.676;5.808;2024-03-02T08:55:16;15.50;52.90
62583;DHT22;48641;51.676;5.808;2024-03-02T08:57:41;15.60;52.90
62583;DHT22;48641;51.676;5.808;2024-03-02T09:02:44;15.50;52.70
62583;DHT22;48641;51.676;5.808;2024-03-02T09:05:10;15.60;52.80
62583;DHT22;48641;51.676;5.808;2024-03-02T09:07:35;15.50;52.70
62583;DHT22;48641;51.676;5.808;2024-03-02T09:10:01;15.50;52.70
62583;DHT22;48641;51.676;5.808;2024-03-02T09:12:26;15.60;52.70
62583;DHT22;48641;51.676;5.808;2024-03-02T09:14:52;15.50;52.60
62583;DHT22;48641;51.676;5.808;2024-03-02T09:17:18;15.50;52.60
62583;DHT22;48641;51.676;5.808;2024-03-02T09:19:43;15.50;52.60
62583;DHT22;48641;51.676;5.808;2024-03-02T09:22:09;15.50;52.60
62583;DHT22;48641;51.676;5.808;2024-03-02T09:24:35;15.50;52.60
62583;DHT22;48641;51.676;5.808;2024-03-02T09:27:00;15.50;52.50
62583;DHT22;48641;51.676;5.808;2024-03-02T09:29:26;15.50;53.70
62583;DHT22;48641;51.676;5.808;2024-03-02T09:31:51;15.50;52.70
62583;DHT22;48641;51.676;5.808;2024-03-02T09:34:17;15.50;52.60
62583;DHT22;48641;51.676;5.808;2024-03-02T09:36:43;15.50;52.70
62583;DHT22;48641;51.676;5.808;2024-03-02T09:39:09;15.50;52.70
62583;DHT22;48641;51.676;5.808;2024-03-02T09:41:36;15.50;52.80
62583;DHT22;48641;51.676;5.808;2024-03-02T09:44:03;15.50;52.80
62583;DHT22;48641;51.676;5.808;2024-03-02T09:46:29;15.50;52.80
62583;DHT22;48641;51.676;5.808;2024-03-02T09:48:54;15.50;52.80
62583;DHT22;48641;51.676;5.808;2024-03-02T09:51:20;15.50;52.90
62583;DHT22;48641;51.676;5.808;2024-03-02T09:53:47;15.50;52.90
62583;DHT22;48641;51.676;5.808;2024-03-02T09:56:13;15.50;52.90
62583;DHT22;48641;51.676;5.808;2024-03-02T09:58:39;15.50;53.00
62583;DHT22;48641;51.676;5.808;2024-03-02T10:01:08;15.50;53.10
62583;DHT22;48641;51.676;5.808;2024-03-02T10:03:36;15.40;53.20
62583;DHT22;48641;51.676;5.808;2024-03-02T10:06:22;15.50;53.30
62583;DHT22;48641;51.676;5.808;2024-03-02T10:08:48;15.50;53.30
62583;DHT22;48641;51.676;5.808;2024-03-02T10:11:34;15.40;53.40
62583;DHT22;48641;51.676;5.808;2024-03-02T10:14:09;15.50;53.50
62583;DHT22;48641;51.676;5.808;2024-03-02T10:16:43;15.40;53.50
62583;DHT22;48641;51.676;5.808;2024-03-02T10:19:23;15.40;53.50
62583;DHT22;48641;51.676;5.808;2024-03-02T10:24:24;15.40;54.30
62583;DHT22;48641;51.676;5.808;2024-03-02T10:26:50;15.40;53.80
62583;DHT22;48641;51.676;5.808;2024-03-02T10:29:16;15.40;54.70
62583;DHT22;48641;51.676;5.808;2024-03-02T10:31:43;15.40;53.90
62583;DHT22;48641;51.676;5.808;2024-03-02T10:34:10;15.40;53.80
62583;DHT22;48641;51.676;5.808;2024-03-02T10:36:37;15.40;53.90
62583;DHT22;48641;51.676;5.808;2024-03-02T10:39:03;15.40;53.90
62583;DHT22;48641;51.676;5.808;2024-03-02T10:41:34;15.50;53.90
62583;DHT22;48641;51.676;5.808;2024-03-02T10:44:04;15.50;54.00
62583;DHT22;48641;51.676;5.808;2024-03-02T10:46:30;15.50;54.10
62583;DHT22;48641;51.676;5.808;2024-03-02T10:48:57;15.50;54.00
62583;DHT22;48641;51.676;5.808;2024-03-02T10:51:25;15.50;54.00
62583;DHT22;48641;51.676;5.808;2024-03-02T10:53:52;15.50;54.00
62583;DHT22;48641;51.676;5.808;2024-03-02T10:56:22;15.60;54.10
62583;DHT22;48641;51.676;5.808;2024-03-02T10:58:58;15.60;54.10
62583;DHT22;48641;51.676;5.808;2024-03-02T11:01:25;15.60;54.10
62583;DHT22;48641;51.676;5.808;2024-03-02T11:03:52;15.60;54.10
62583;DHT22;48641;51.676;5.808;2024-03-02T11:06:19;15.60;54.10
62583;DHT22;48641;51.676;5.808;2024-03-02T11:08:47;15.60;54.00
62583;DHT22;48641;51.676;5.808;2024-03-02T11:11:15;15.70;54.30
62583;DHT22;48641;51.676;5.808;2024-03-02T11:13:49;15.70;54.30
62583;DHT22;48641;51.676;5.808;2024-03-02T11:16:34;15.70;54.20
62583;DHT22;48641;51.676;5.808;2024-03-02T11:19:20;15.70;54.20
62583;DHT22;48641;51.676;5.808;2024-03-02T11:21:47;15.80;54.10
62583;DHT22;48641;51.676;5.808;2024-03-02T11:26:52;15.80;54.20
62583;DHT22;48641;51.676;5.808;2024-03-02T11:32:05;15.80;54.20
62583;DHT22;48641;51.676;5.808;2024-03-02T11:34:35;15.90;54.30
62583;DHT22;48641;51.676;5.808;2024-03-02T11:37:02;15.90;55.30
62583;DHT22;48641;51.676;5.808;2024-03-02T11:39:30;15.90;54.30
62583;DHT22;48641;51.676;5.808;2024-03-02T11:41:56;15.90;54.20
62583;DHT22;48641;51.676;5.808;2024-03-02T11:44:24;15.90;54.10
62583;DHT22;48641;51.676;5.808;2024-03-02T11:47:01;15.90;54.10
62583;DHT22;48641;51.676;5.808;2024-03-02T11:49:43;16.00;54.10
62583;DHT22;48641;51.676;5.808;2024-03-02T11:52:11;16.00;54.10
62583;DHT22;48641;51.676;5.808;2024-03-02T11:54:38;16.00;54.00
62583;DHT22;48641;51.676;5.808;2024-03-02T11:57:15;16.00;54.00
62583;DHT22;48641;51.676;5.808;2024-03-02T11:59:42;16.10;54.10
62583;DHT22;48641;51.676;5.808;2024-03-02T12:02:15;16.10;54.00
62583;DHT22;48641;51.676;5.808;2024-03-02T12:04:42;16.10;54.00
62583;DHT22;48641;51.676;5.808;2024-03-02T12:07:09;16.10;53.90
62583;DHT22;48641;51.676;5.808;2024-03-02T12:14:51;16.20;54.00
62583;DHT22;48641;51.676;5.808;2024-03-02T12:17:18;16.20;53.80
62583;DHT22;48641;51.676;5.808;2024-03-02T12:22:12;16.30;53.90
62583;DHT22;48641;51.676;5.808;2024-03-02T12:24:38;16.30;53.90
62583;DHT22;48641;51.676;5.808;2024-03-02T12:27:05;16.30;53.80
62583;DHT22;48641;51.676;5.808;2024-03-02T12:29:31;16.30;53.90
62583;DHT22;48641;51.676;5.808;2024-03-02T12:31:56;16.30;53.80
62583;DHT22;48641;51.676;5.808;2024-03-02T12:34:22;16.30;53.80
62583;DHT22;48641;51.676;5.808;2024-03-02T12:36:48;16.40;53.90
62583;DHT22;48641;51.676;5.808;2024-03-02T12:39:21;16.40;53.70
62583;DHT22;48641;51.676;5.808;2024-03-02T12:41:49;16.40;53.60
62583;DHT22;48641;51.676;5.808;2024-03-02T12:44:16;16.40;53.50
62583;DHT22;48641;51.676;5.808;2024-03-02T12:46:42;16.50;53.60
62583;DHT22;48641;51.676;5.808;2024-03-02T12:49:09;16.50;53.60
62583;DHT22;48641;51.676;5.808;2024-03-02T12:51:37;16.50;53.30
62583;DHT22;48641;51.676;5.808;2024-03-02T12:54:03;16.50;53.30
62583;DHT22;48641;51.676;5.808;2024-03-02T12:56:30;16.50;53.30
62583;DHT22;48641;51.676;5.808;2024-03-02T12:58:56;16.60;53.40
62583;DHT22;48641;51.676;5.808;2024-03-02T13:01:22;16.60;53.20
62583;DHT22;48641;51.676;5.808;2024-03-02T13:03:50;16.60;53.30
62583;DHT22;48641;51.676;5.808;2024-03-02T13:06:16;16.60;53.10
62583;DHT22;48641;51.676;5.808;2024-03-02T13:08:42;16.60;53.20
62583;DHT22;48641;51.676;5.808;2024-03-02T13:11:08;16.60;53.40
62583;DHT22;48641;51.676;5.808;2024-03-02T13:13:35;16.60;53.20
62583;DHT22;48641;51.676;5.808;2024-03-02T13:16:01;16.60;53.10
62583;DHT22;48641;51.676;5.808;2024-03-02T13:18:28;16.60;53.10
62583;DHT22;48641;51.676;5.808;2024-03-02T13:20:53;16.70;53.00
62583;DHT22;48641;51.676;5.808;2024-03-02T13:23:21;16.70;53.10
62583;DHT22;48641;51.676;5.808;2024-03-02T13:25:47;16.80;53.00
62583;DHT22;48641;51.676;5.808;2024-03-02T13:28:13;16.80;52.80
62583;DHT22;48641;51.676;5.808;2024-03-02T13:30:38;16.80;52.70
62583;DHT22;48641;51.676;5.808;2024-03-02T13:33:04;16.90;52.60
62583;DHT22;48641;51.676;5.808;2024-03-02T13:35:30;16.90;52.50
62583;DHT22;48641;51.676;5.808;2024-03-02T13:37:56;16.90;52.50
62583;DHT22;48641;51.676;5.808;2024-03-02T13:40:21;16.90;52.50
62583;DHT22;48641;51.676;5.808;2024-03-02T13:48:00;17.00;51.80
62583;DHT22;48641;51.676;5.808;2024-03-02T13:50:27;17.00;52.10
62583;DHT22;48641;51.676;5.808;2024-03-02T13:52:52;17.10;52.20
62583;DHT22;48641;51.676;5.808;2024-03-02T13:55:18;17.10;52.10
62583;DHT22;48641;51.676;5.808;2024-03-02T13:57:43;17.10;52.00
62583;DHT22;48641;51.676;5.808;2024-03-02T14:00:09;17.10;52.00
62583;DHT22;48641;51.676;5.808;2024-03-02T14:02:37;17.10;51.90
62583;DHT22;48641;51.676;5.808;2024-03-02T14:05:03;17.10;51.70
62583;DHT22;48641;51.676;5.808;2024-03-02T14:07:29;17.20;51.70
62583;DHT22;48641;51.676;5.808;2024-03-02T14:15:06;17.20;51.50
62583;DHT22;48641;51.676;5.808;2024-03-02T14:17:31;17.20;51.40
62583;DHT22;48641;51.676;5.808;2024-03-02T14:19:57;17.30;51.40
62583;DHT22;48641;51.676;5.808;2024-03-02T14:22:24;17.30;51.30
62583;DHT22;48641;51.676;5.808;2024-03-02T14:24:50;17.30;51.20
62583;DHT22;48641;51.676;5.808;2024-03-02T14:27:16;17.30;51.10
62583;DHT22;48641;51.676;5.808;2024-03-02T14:29:43;17.30;51.10
62583;DHT22;48641;51.676;5.808;2024-03-02T14:32:08;17.30;50.90
62583;DHT22;48641;51.676;5.808;2024-03-02T14:34:34;17.30;50.70
62583;DHT22;48641;51.676;5.808;2024-03-02T14:37:00;17.40;50.70
62583;DHT22;48641;51.676;5.808;2024-03-02T14:47:02;17.40;50.60
62583;DHT22;48641;51.676;5.808;2024-03-02T14:49:30;17.40;50.60
62583;DHT22;48641;51.676;5.808;2024-03-02T14:51:55;17.40;50.60
62583;DHT22;48641;51.676;5.808;2024-03-02T14:54:21;17.50;50.70
62583;DHT22;48641;51.676;5.808;2024-03-02T14:56:47;17.50;50.60
62583;DHT22;48641;51.676;5.808;2024-03-02T14:59:13;17.50;50.50
62583;DHT22;48641;51.676;5.808;2024-03-02T15:01:39;17.50;50.50
62583;DHT22;48641;51.676;5.808;2024-03-02T15:04:04;17.50;50.40
62583;DHT22;48641;51.676;5.808;2024-03-02T15:06:30;17.50;50.20
62583;DHT22;48641;51.676;5.808;2024-03-02T15:08:56;17.50;50.10
62583;DHT22;48641;51.676;5.808;2024-03-02T15:11:26;17.50;50.10
62583;DHT22;48641;51.676;5.808;2024-03-02T15:13:52;17.60;50.20
62583;DHT22;48641;51.676;5.808;2024-03-02T15:16:18;17.50;50.10
62583;DHT22;48641;51.676;5.808;2024-03-02T15:18:43;17.60;50.10
62583;DHT22;48641;51.676;5.808;2024-03-02T15:21:11;17.60;50.10
62583;DHT22;48641;51.676;5.808;2024-03-02T15:23:37;17.60;49.80
62583;DHT22;48641;51.676;5.808;2024-03-02T15:26:03;17.60;49.80
62583;DHT22;48641;51.676;5.808;2024-03-02T15:28:29;17.60;49.90
62583;DHT22;48641;51.676;5.808;2024-03-02T15:30:54;17.60;49.80
62583;DHT22;48641;51.676;5.808;2024-03-02T15:33:20;17.60;49.80
62583;DHT22;48641;51.676;5.808;2024-03-02T15:35:46;17.60;49.80
62583;DHT22;48641;51.676;5.808;2024-03-02T15:38:11;17.60;49.70
62583;DHT22;48641;51.676;5.808;2024-03-02T15:40:40;17.60;49.80
62583;DHT22;48641;51.676;5.808;2024-03-02T15:43:06;17.60;50.70
62583;DHT22;48641;51.676;5.808;2024-03-02T15:45:31;17.60;49.70
62583;DHT22;48641;51.676;5.808;2024-03-02T15:47:59;17.70;49.90
62583;DHT22;48641;51.676;5.808;2024-03-02T15:50:26;17.70;49.70
62583;DHT22;48641;51.676;5.808;2024-03-02T15:52:52;17.70;49.70
62583;DHT22;48641;51.676;5.808;2024-03-02T15:55:18;17.70;49.80
62583;DHT22;48641;51.676;5.808;2024-03-02T15:57:43;17.70;49.70
62583;DHT22;48641;51.676;5.808;2024-03-02T16:00:09;17.70;50.50
62583;DHT22;48641;51.676;5.808;2024-03-02T16:02:35;17.70;51.30
62583;DHT22;48641;51.676;5.808;2024-03-02T16:05:01;17.70;53.00
62583;DHT22;48641;51.676;5.808;2024-03-02T16:07:26;17.70;51.80
62583;DHT22;48641;51.676;5.808;2024-03-02T16:09:52;17.80;51.80